createdAt,value
2023-02-26T00:04:04.904Z,2.20
2023-02-26T00:09:07.944Z,2.10
2023-02-26T00:14:14.725Z,1.90
2023-02-26T00:19:17.112Z,2.00
2023-02-26T00:24:18.986Z,1.80
2023-02-26T00:29:21.009Z,1.80
2023-02-26T00:34:23.144Z,1.70
2023-02-26T00:39:37.150Z,1.70
2023-02-26T00:44:39.877Z,1.80
2023-02-26T00:49:53.842Z,1.80
2023-02-26T00:54:55.610Z,2.00
2023-02-26T00:59:57.647Z,1.80
2023-02-26T01:05:01.139Z,1.80
2023-02-26T01:10:03.346Z,1.70
2023-02-26T01:15:07.069Z,1.60
2023-02-26T01:20:24.580Z,1.50
2023-02-26T01:25:39.283Z,1.60
2023-02-26T01:35:51.050Z,1.60
2023-02-26T01:41:10.968Z,1.70
2023-02-26T01:46:32.644Z,1.50
2023-02-26T01:51:55.911Z,1.40
2023-02-26T01:57:05.956Z,1.20
2023-02-26T02:02:10.312Z,1.10
2023-02-26T02:07:12.745Z,1.10
2023-02-26T02:12:29.561Z,1.20
2023-02-26T02:18:03.157Z,1.10
2023-02-26T02:23:16.278Z,1.10
2023-02-26T02:28:55.848Z,1.10
2023-02-26T02:34:17.642Z,0.90
2023-02-26T02:39:26.680Z,0.50
2023-02-26T02:44:30.374Z,0.60
2023-02-26T02:49:43.056Z,0.80
2023-02-26T02:54:53.791Z,0.70
2023-02-26T03:00:04.843Z,0.70
2023-02-26T03:05:07.446Z,0.90
2023-02-26T03:10:10.209Z,0.70
2023-02-26T03:15:13.969Z,0.70
2023-02-26T03:20:38.461Z,0.60
2023-02-26T03:25:53.699Z,0.70
2023-02-26T03:31:11.368Z,0.80
2023-02-26T03:36:25.500Z,0.60
2023-02-26T03:41:38.772Z,0.70
2023-02-26T03:46:46.466Z,0.60
2023-02-26T03:51:48.904Z,0.60
2023-02-26T03:56:50.957Z,0.60
2023-02-26T04:02:02.311Z,0.70
2023-02-26T04:07:06.566Z,0.60
2023-02-26T04:22:13.412Z,0.40
2023-02-26T04:27:15.209Z,0.20
2023-02-26T04:37:19.349Z,0.30
2023-02-26T05:07:33.249Z,0.00
2023-02-26T05:22:40.869Z,0.00
2023-02-26T06:08:05.828Z,-0.20
2023-02-26T06:38:21.870Z,0.50
2023-02-26T06:43:24.073Z,0.70
2023-02-26T06:48:26.819Z,0.70
2023-02-26T07:13:38.456Z,0.90
2023-02-26T07:28:50.895Z,0.90
2023-02-26T07:33:52.995Z,1.10
2023-02-26T07:38:55.605Z,1.60
2023-02-26T07:54:03.199Z,1.60
2023-02-26T07:59:05.538Z,4.90
2023-02-26T08:04:09.187Z,2.20
2023-02-26T08:09:11.345Z,2.50
2023-02-26T08:19:15.965Z,2.40
2023-02-26T08:24:18.215Z,2.80
2023-02-26T08:29:20.578Z,2.80
2023-02-26T08:34:22.395Z,2.20
2023-02-26T08:39:24.274Z,2.80
2023-02-26T08:44:26.017Z,2.00
2023-02-26T08:49:28.512Z,2.20
2023-02-26T08:54:30.461Z,2.20
2023-02-26T08:59:32.834Z,2.20
2023-02-26T09:04:34.988Z,2.30
2023-02-26T09:09:36.908Z,2.20
2023-02-26T09:24:45.414Z,2.30
2023-02-26T09:29:47.406Z,2.40
2023-02-26T09:34:49.204Z,2.90
2023-02-26T09:39:53.888Z,2.60
2023-02-26T09:45:00.407Z,3.00
2023-02-26T09:55:27.124Z,3.30
2023-02-26T10:00:43.125Z,3.30
2023-02-26T10:06:05.892Z,3.20
2023-02-26T10:11:31.914Z,3.30
2023-02-26T10:16:40.355Z,3.50
2023-02-26T10:21:48.689Z,3.40
2023-02-26T10:27:11.976Z,3.40
2023-02-26T10:32:43.319Z,4.00
2023-02-26T10:37:56.223Z,3.80
2023-02-26T10:43:05.672Z,4.00
2023-02-26T10:48:21.445Z,3.80
2023-02-26T10:53:26.865Z,3.60
2023-02-26T10:58:29.159Z,3.50
2023-02-26T11:03:40.228Z,3.50
2023-02-26T11:08:49.115Z,3.50
2023-02-26T11:13:52.951Z,3.20
2023-02-26T11:18:58.497Z,4.20
2023-02-26T11:24:07.900Z,3.10
2023-02-26T11:29:16.149Z,2.90
2023-02-26T11:34:23.648Z,3.20
2023-02-26T11:39:33.583Z,3.20
2023-02-26T11:44:40.165Z,3.20
2023-02-26T11:49:46.646Z,3.60
2023-02-26T11:54:51.230Z,3.30
2023-02-26T11:59:55.981Z,3.40
2023-02-26T12:05:01.474Z,2.90
2023-02-26T12:10:03.348Z,5.70
2023-02-26T12:15:14.368Z,3.60
2023-02-26T12:20:31.469Z,3.50
2023-02-26T12:25:54.816Z,5.90
2023-02-26T12:31:17.103Z,3.90
2023-02-26T12:36:49.027Z,4.10
2023-02-26T12:42:06.659Z,3.90
2023-02-26T12:47:08.504Z,3.90
2023-02-26T12:52:20.961Z,4.00
2023-02-26T12:57:35.406Z,4.70
2023-02-26T13:02:55.560Z,4.50
2023-02-26T13:08:20.841Z,5.00
2023-02-26T13:13:41.396Z,4.70
2023-02-26T13:19:06.248Z,5.00
2023-02-26T13:24:21.002Z,5.40
2023-02-26T13:29:34.829Z,8.00
2023-02-26T13:34:46.612Z,9.90
2023-02-26T13:40:14.414Z,8.70
2023-02-26T13:45:16.234Z,7.10
2023-02-26T13:50:41.719Z,4.70
2023-02-26T13:55:49.754Z,5.70
2023-02-26T14:01:05.089Z,5.10
2023-02-26T14:06:10.493Z,5.10
2023-02-26T14:11:32.497Z,5.30
2023-02-26T14:16:35.803Z,5.10
2023-02-26T14:21:46.879Z,5.10
2023-02-26T14:26:52.181Z,5.40
2023-02-26T14:31:56.210Z,5.10
2023-02-26T14:37:02.294Z,5.10
2023-02-26T14:42:10.744Z,7.60
2023-02-26T14:47:13.507Z,4.90
2023-02-26T14:52:34.092Z,7.70
2023-02-26T14:58:01.855Z,9.10
2023-02-26T15:03:22.070Z,12.70
2023-02-26T15:08:37.439Z,11.40
2023-02-26T15:14:09.834Z,9.30
2023-02-26T15:19:31.151Z,8.40
2023-02-26T15:24:34.221Z,6.60
2023-02-26T15:29:38.988Z,6.00
2023-02-26T15:34:49.185Z,6.10
2023-02-26T15:39:52.398Z,6.30
2023-02-26T15:44:57.275Z,5.30
2023-02-26T15:50:00.277Z,5.10
2023-02-26T15:55:06.434Z,5.10
2023-02-26T16:00:16.316Z,4.40
2023-02-26T16:05:19.645Z,4.00
2023-02-26T16:10:40.121Z,4.00
2023-02-26T16:20:49.694Z,4.70
2023-02-26T16:25:59.447Z,3.60
2023-02-26T16:31:04.683Z,4.00
2023-02-26T16:36:18.375Z,3.70
2023-02-26T16:41:26.182Z,3.60
2023-02-26T16:46:35.402Z,3.60
2023-02-26T16:51:39.945Z,3.40
2023-02-26T17:16:14.252Z,3.00
2023-02-26T17:21:17.683Z,2.60
2023-02-26T17:26:20.030Z,2.90
2023-02-26T17:31:22.181Z,3.00
2023-02-26T17:36:26.998Z,3.00
2023-02-26T17:41:30.581Z,3.10
2023-02-26T17:46:32.323Z,2.80
2023-02-26T17:56:37.992Z,2.60
2023-02-26T18:06:43.280Z,2.60
2023-02-26T18:16:47.449Z,2.50
2023-02-26T18:26:53.265Z,2.50
2023-02-26T18:31:55.268Z,2.40
2023-02-26T18:36:57.518Z,2.40
2023-02-26T18:41:59.514Z,2.60
2023-02-26T18:47:01.618Z,2.60
2023-02-26T18:52:03.788Z,2.50
2023-02-26T18:57:06.925Z,2.40
2023-02-26T19:07:14.122Z,2.30
2023-02-26T19:17:22.261Z,2.30
2023-02-26T19:22:24.806Z,2.30
2023-02-26T19:27:26.967Z,2.40
2023-02-26T19:32:29.440Z,2.10
2023-02-26T19:37:31.455Z,2.00
2023-02-26T20:07:48.539Z,1.80
2023-02-26T20:17:53.644Z,1.70
2023-02-26T20:22:55.521Z,1.70
2023-02-26T20:33:00.432Z,1.40
2023-02-26T20:38:03.654Z,1.30
2023-02-26T20:43:06.332Z,1.50
2023-02-26T20:48:10.106Z,1.50
2023-02-26T20:53:12.189Z,1.50
2023-02-26T21:03:16.738Z,1.50
2023-02-26T21:08:18.884Z,1.40
2023-02-26T21:13:21.470Z,1.60
2023-02-26T21:18:24.024Z,1.40
2023-02-26T21:33:32.011Z,1.70
2023-02-26T21:38:35.012Z,1.40
2023-02-26T21:43:37.198Z,1.60
2023-02-26T21:48:39.246Z,1.60
2023-02-26T21:58:44.221Z,1.40
2023-02-26T22:03:46.401Z,1.50
2023-02-26T22:13:50.911Z,1.40
2023-02-26T22:23:55.288Z,1.40
2023-02-26T22:34:01.586Z,1.20
2023-02-26T22:44:08.061Z,1.10
2023-02-26T22:49:11.002Z,1.00
2023-02-26T22:54:13.239Z,1.10
2023-02-26T23:09:21.080Z,1.00
2023-02-26T23:19:25.601Z,1.10
2023-02-26T23:24:27.680Z,1.00
2023-02-26T23:29:29.976Z,2.00
2023-02-26T23:34:31.681Z,0.90
2023-02-26T23:39:34.181Z,0.90
2023-02-26T23:44:36.122Z,0.80
2023-02-26T23:49:38.073Z,0.90
2023-02-26T23:54:40.147Z,0.90
2023-02-26T23:59:42.228Z,1.00
